sensor_id;sensor_type;location;lat;lon;timestamp;temperature;humidity
25440;DHT22;13365;52.208;5.488;2022-08-30T00:00:09;20.60;92.10
25440;DHT22;13365;52.208;5.488;2022-08-30T00:02:55;20.60;92.20
25440;DHT22;13365;52.208;5.488;2022-08-30T00:05:21;20.50;92.50
25440;DHT22;13365;52.208;5.488;2022-08-30T00:07:46;20.50;92.70
25440;DHT22;13365;52.208;5.488;2022-08-30T00:10:12;20.50;92.70
25440;DHT22;13365;52.208;5.488;2022-08-30T00:12:38;20.50;92.70
25440;DHT22;13365;52.208;5.488;2022-08-30T00:15:03;20.50;92.70
25440;DHT22;13365;52.208;5.488;2022-08-30T00:17:31;20.50;92.50
25440;DHT22;13365;52.208;5.488;2022-08-30T00:19:57;20.50;92.70
25440;DHT22;13365;52.208;5.488;2022-08-30T00:22:22;20.50;92.60
25440;DHT22;13365;52.208;5.488;2022-08-30T00:24:47;20.50;92.70
25440;DHT22;13365;52.208;5.488;2022-08-30T00:27:13;20.50;92.80
25440;DHT22;13365;52.208;5.488;2022-08-30T00:29:40;20.50;92.80
25440;DHT22;13365;52.208;5.488;2022-08-30T00:32:05;20.40;92.80
25440;DHT22;13365;52.208;5.488;2022-08-30T00:34:31;20.60;92.80
25440;DHT22;13365;52.208;5.488;2022-08-30T00:36:56;20.50;92.70
25440;DHT22;13365;52.208;5.488;2022-08-30T00:39:23;20.60;92.70
25440;DHT22;13365;52.208;5.488;2022-08-30T00:41:49;20.50;92.70
25440;DHT22;13365;52.208;5.488;2022-08-30T00:44:15;20.50;92.90
25440;DHT22;13365;52.208;5.488;2022-08-30T00:46:40;20.60;93.10
25440;DHT22;13365;52.208;5.488;2022-08-30T00:49:08;20.50;93.10
25440;DHT22;13365;52.208;5.488;2022-08-30T00:51:35;20.50;93.20
25440;DHT22;13365;52.208;5.488;2022-08-30T00:54:00;20.50;93.20
25440;DHT22;13365;52.208;5.488;2022-08-30T00:56:27;20.50;93.10
25440;DHT22;13365;52.208;5.488;2022-08-30T00:58:54;20.50;93.00
25440;DHT22;13365;52.208;5.488;2022-08-30T01:01:20;20.50;93.10
25440;DHT22;13365;52.208;5.488;2022-08-30T01:03:45;20.70;92.90
25440;DHT22;13365;52.208;5.488;2022-08-30T01:06:12;20.70;92.70
25440;DHT22;13365;52.208;5.488;2022-08-30T01:08:40;20.70;92.70
25440;DHT22;13365;52.208;5.488;2022-08-30T01:11:06;20.60;92.70
25440;DHT22;13365;52.208;5.488;2022-08-30T01:13:33;20.70;92.50
25440;DHT22;13365;52.208;5.488;2022-08-30T01:16:00;20.70;92.40
25440;DHT22;13365;52.208;5.488;2022-08-30T01:18:26;20.80;92.40
25440;DHT22;13365;52.208;5.488;2022-08-30T01:20:54;20.70;92.30
25440;DHT22;13365;52.208;5.488;2022-08-30T01:23:23;20.60;92.50
25440;DHT22;13365;52.208;5.488;2022-08-30T01:25:49;20.40;92.70
25440;DHT22;13365;52.208;5.488;2022-08-30T01:28:20;20.30;93.10
25440;DHT22;13365;52.208;5.488;2022-08-30T01:30:47;20.20;93.40
25440;DHT22;13365;52.208;5.488;2022-08-30T01:33:12;20.00;93.60
25440;DHT22;13365;52.208;5.488;2022-08-30T01:38:07;19.90;93.80
25440;DHT22;13365;52.208;5.488;2022-08-30T01:40:33;19.90;94.00
25440;DHT22;13365;52.208;5.488;2022-08-30T01:42:58;20.00;93.80
25440;DHT22;13365;52.208;5.488;2022-08-30T01:45:24;20.00;93.80
25440;DHT22;13365;52.208;5.488;2022-08-30T01:47:49;20.00;93.80
25440;DHT22;13365;52.208;5.488;2022-08-30T01:50:15;20.00;93.70
25440;DHT22;13365;52.208;5.488;2022-08-30T01:52:40;20.10;93.50
25440;DHT22;13365;52.208;5.488;2022-08-30T01:55:06;20.00;93.50
25440;DHT22;13365;52.208;5.488;2022-08-30T01:57:32;20.00;93.40
25440;DHT22;13365;52.208;5.488;2022-08-30T01:59:58;20.10;93.50
25440;DHT22;13365;52.208;5.488;2022-08-30T02:02:24;20.10;93.60
25440;DHT22;13365;52.208;5.488;2022-08-30T02:04:51;20.10;93.70
25440;DHT22;13365;52.208;5.488;2022-08-30T02:07:18;20.10;93.50
25440;DHT22;13365;52.208;5.488;2022-08-30T02:09:43;20.20;93.40
25440;DHT22;13365;52.208;5.488;2022-08-30T02:12:09;20.20;93.30
25440;DHT22;13365;52.208;5.488;2022-08-30T02:14:34;20.20;93.20
25440;DHT22;13365;52.208;5.488;2022-08-30T02:17:01;20.10;93.20
25440;DHT22;13365;52.208;5.488;2022-08-30T02:19:27;20.20;93.10
25440;DHT22;13365;52.208;5.488;2022-08-30T02:21:53;20.10;93.10
25440;DHT22;13365;52.208;5.488;2022-08-30T02:24:18;20.10;93.00
25440;DHT22;13365;52.208;5.488;2022-08-30T02:26:44;20.00;93.10
25440;DHT22;13365;52.208;5.488;2022-08-30T02:29:09;20.00;93.20
25440;DHT22;13365;52.208;5.488;2022-08-30T02:31:35;19.90;93.30
25440;DHT22;13365;52.208;5.488;2022-08-30T02:34:00;19.80;93.50
25440;DHT22;13365;52.208;5.488;2022-08-30T02:36:26;19.80;93.50
25440;DHT22;13365;52.208;5.488;2022-08-30T02:38:52;19.70;93.60
25440;DHT22;13365;52.208;5.488;2022-08-30T02:41:18;19.70;93.60
25440;DHT22;13365;52.208;5.488;2022-08-30T02:43:43;19.70;93.80
25440;DHT22;13365;52.208;5.488;2022-08-30T02:46:09;19.80;93.80
25440;DHT22;13365;52.208;5.488;2022-08-30T02:48:34;19.70;93.80
25440;DHT22;13365;52.208;5.488;2022-08-30T02:51:08;19.60;94.00
25440;DHT22;13365;52.208;5.488;2022-08-30T02:53:34;19.60;94.00
25440;DHT22;13365;52.208;5.488;2022-08-30T02:56:00;19.60;94.20
25440;DHT22;13365;52.208;5.488;2022-08-30T02:58:25;19.50;94.20
25440;DHT22;13365;52.208;5.488;2022-08-30T03:00:51;19.50;94.20
25440;DHT22;13365;52.208;5.488;2022-08-30T03:03:16;19.50;94.30
25440;DHT22;13365;52.208;5.488;2022-08-30T03:05:42;19.50;94.20
25440;DHT22;13365;52.208;5.488;2022-08-30T03:08:07;19.60;94.20
25440;DHT22;13365;52.208;5.488;2022-08-30T03:10:33;19.60;94.00
25440;DHT22;13365;52.208;5.488;2022-08-30T03:12:59;19.60;93.90
25440;DHT22;13365;52.208;5.488;2022-08-30T03:15:25;19.60;93.70
25440;DHT22;13365;52.208;5.488;2022-08-30T03:17:51;19.60;93.80
25440;DHT22;13365;52.208;5.488;2022-08-30T03:20:17;19.60;93.90
25440;DHT22;13365;52.208;5.488;2022-08-30T03:22:44;19.40;93.90
25440;DHT22;13365;52.208;5.488;2022-08-30T03:25:09;19.40;94.20
25440;DHT22;13365;52.208;5.488;2022-08-30T03:27:35;19.30;94.30
25440;DHT22;13365;52.208;5.488;2022-08-30T03:30:00;19.30;94.40
25440;DHT22;13365;52.208;5.488;2022-08-30T03:32:26;19.30;94.40
25440;DHT22;13365;52.208;5.488;2022-08-30T03:34:51;19.20;94.50
25440;DHT22;13365;52.208;5.488;2022-08-30T03:37:17;19.10;94.70
25440;DHT22;13365;52.208;5.488;2022-08-30T03:39:44;19.10;94.70
25440;DHT22;13365;52.208;5.488;2022-08-30T03:42:10;19.10;94.90
25440;DHT22;13365;52.208;5.488;2022-08-30T03:44:36;19.00;95.20
25440;DHT22;13365;52.208;5.488;2022-08-30T03:47:01;18.90;95.20
25440;DHT22;13365;52.208;5.488;2022-08-30T03:49:27;18.90;95.40
25440;DHT22;13365;52.208;5.488;2022-08-30T03:51:53;18.90;95.40
25440;DHT22;13365;52.208;5.488;2022-08-30T03:54:18;18.90;95.40
25440;DHT22;13365;52.208;5.488;2022-08-30T03:56:44;18.80;95.40
25440;DHT22;13365;52.208;5.488;2022-08-30T03:59:09;18.90;95.40
25440;DHT22;13365;52.208;5.488;2022-08-30T04:01:35;18.90;95.30
25440;DHT22;13365;52.208;5.488;2022-08-30T04:04:00;18.80;95.40
25440;DHT22;13365;52.208;5.488;2022-08-30T04:06:26;18.70;95.50
25440;DHT22;13365;52.208;5.488;2022-08-30T04:08:52;18.70;95.60
25440;DHT22;13365;52.208;5.488;2022-08-30T04:11:17;18.70;95.70
25440;DHT22;13365;52.208;5.488;2022-08-30T04:13:44;18.60;95.60
25440;DHT22;13365;52.208;5.488;2022-08-30T04:16:10;18.60;95.80
25440;DHT22;13365;52.208;5.488;2022-08-30T04:18:35;18.60;95.80
25440;DHT22;13365;52.208;5.488;2022-08-30T04:21:01;18.60;95.80
25440;DHT22;13365;52.208;5.488;2022-08-30T04:23:27;18.60;95.60
25440;DHT22;13365;52.208;5.488;2022-08-30T04:25:53;18.70;95.50
25440;DHT22;13365;52.208;5.488;2022-08-30T04:28:18;18.60;95.50
25440;DHT22;13365;52.208;5.488;2022-08-30T04:30:44;18.70;95.40
25440;DHT22;13365;52.208;5.488;2022-08-30T04:33:10;18.80;94.90
25440;DHT22;13365;52.208;5.488;2022-08-30T04:35:36;19.10;94.60
25440;DHT22;13365;52.208;5.488;2022-08-30T04:38:02;19.10;94.30
25440;DHT22;13365;52.208;5.488;2022-08-30T04:40:29;19.10;94.40
25440;DHT22;13365;52.208;5.488;2022-08-30T04:42:54;18.90;94.60
25440;DHT22;13365;52.208;5.488;2022-08-30T04:45:20;18.90;94.80
25440;DHT22;13365;52.208;5.488;2022-08-30T04:47:46;18.80;94.90
25440;DHT22;13365;52.208;5.488;2022-08-30T04:50:13;18.70;95.10
25440;DHT22;13365;52.208;5.488;2022-08-30T04:52:38;18.60;95.30
25440;DHT22;13365;52.208;5.488;2022-08-30T04:55:04;18.70;95.40
25440;DHT22;13365;52.208;5.488;2022-08-30T04:57:30;18.50;95.70
25440;DHT22;13365;52.208;5.488;2022-08-30T04:59:55;18.40;96.10
25440;DHT22;13365;52.208;5.488;2022-08-30T05:02:21;18.30;96.30
25440;DHT22;13365;52.208;5.488;2022-08-30T05:04:46;18.30;96.40
25440;DHT22;13365;52.208;5.488;2022-08-30T05:07:31;18.40;96.30
25440;DHT22;13365;52.208;5.488;2022-08-30T05:09:56;18.30;96.30
25440;DHT22;13365;52.208;5.488;2022-08-30T05:12:22;18.30;96.50
25440;DHT22;13365;52.208;5.488;2022-08-30T05:14:48;18.60;96.20
25440;DHT22;13365;52.208;5.488;2022-08-30T05:17:14;18.60;96.00
25440;DHT22;13365;52.208;5.488;2022-08-30T05:19:39;18.60;95.90
25440;DHT22;13365;52.208;5.488;2022-08-30T05:22:04;18.70;95.80
25440;DHT22;13365;52.208;5.488;2022-08-30T05:24:30;18.70;95.70
25440;DHT22;13365;52.208;5.488;2022-08-30T05:26:56;18.70;95.80
25440;DHT22;13365;52.208;5.488;2022-08-30T05:29:22;18.70;95.90
25440;DHT22;13365;52.208;5.488;2022-08-30T05:31:47;18.70;95.90
25440;DHT22;13365;52.208;5.488;2022-08-30T05:34:13;18.60;96.00
25440;DHT22;13365;52.208;5.488;2022-08-30T05:36:38;18.60;96.20
25440;DHT22;13365;52.208;5.488;2022-08-30T05:39:05;18.60;96.40
25440;DHT22;13365;52.208;5.488;2022-08-30T05:41:30;18.60;96.40
25440;DHT22;13365;52.208;5.488;2022-08-30T05:43:57;18.50;96.60
25440;DHT22;13365;52.208;5.488;2022-08-30T05:46:23;18.60;96.70
25440;DHT22;13365;52.208;5.488;2022-08-30T05:48:49;18.60;96.60
25440;DHT22;13365;52.208;5.488;2022-08-30T05:51:18;18.70;96.60
25440;DHT22;13365;52.208;5.488;2022-08-30T05:53:45;18.60;96.80
25440;DHT22;13365;52.208;5.488;2022-08-30T05:56:12;18.70;96.80
25440;DHT22;13365;52.208;5.488;2022-08-30T05:58:37;18.80;96.60
25440;DHT22;13365;52.208;5.488;2022-08-30T06:01:03;18.80;96.50
25440;DHT22;13365;52.208;5.488;2022-08-30T06:03:29;19.10;96.50
25440;DHT22;13365;52.208;5.488;2022-08-30T06:05:57;19.50;96.00
25440;DHT22;13365;52.208;5.488;2022-08-30T06:08:23;19.60;95.50
25440;DHT22;13365;52.208;5.488;2022-08-30T06:10:49;19.70;95.20
25440;DHT22;13365;52.208;5.488;2022-08-30T06:13:14;19.70;95.10
25440;DHT22;13365;52.208;5.488;2022-08-30T06:15:40;19.80;95.20
25440;DHT22;13365;52.208;5.488;2022-08-30T06:18:08;19.70;95.10
25440;DHT22;13365;52.208;5.488;2022-08-30T06:20:37;19.70;95.20
25440;DHT22;13365;52.208;5.488;2022-08-30T06:23:03;19.70;95.40
25440;DHT22;13365;52.208;5.488;2022-08-30T06:25:28;19.90;95.20
25440;DHT22;13365;52.208;5.488;2022-08-30T06:27:54;19.90;95.00
25440;DHT22;13365;52.208;5.488;2022-08-30T06:30:19;20.10;94.80
25440;DHT22;13365;52.208;5.488;2022-08-30T06:32:44;20.20;94.70
25440;DHT22;13365;52.208;5.488;2022-08-30T06:35:10;20.40;94.20
25440;DHT22;13365;52.208;5.488;2022-08-30T06:37:35;20.50;94.00
25440;DHT22;13365;52.208;5.488;2022-08-30T06:40:01;20.70;93.90
25440;DHT22;13365;52.208;5.488;2022-08-30T06:42:29;21.00;93.10
25440;DHT22;13365;52.208;5.488;2022-08-30T06:44:59;21.30;92.50
25440;DHT22;13365;52.208;5.488;2022-08-30T06:47:25;21.40;92.10
25440;DHT22;13365;52.208;5.488;2022-08-30T06:49:51;21.50;92.00
25440;DHT22;13365;52.208;5.488;2022-08-30T06:52:16;21.60;91.70
25440;DHT22;13365;52.208;5.488;2022-08-30T06:54:42;21.80;91.10
25440;DHT22;13365;52.208;5.488;2022-08-30T06:57:07;21.60;91.30
25440;DHT22;13365;52.208;5.488;2022-08-30T06:59:33;21.80;91.00
25440;DHT22;13365;52.208;5.488;2022-08-30T07:01:58;21.80;90.80
25440;DHT22;13365;52.208;5.488;2022-08-30T07:04:24;21.90;90.00
25440;DHT22;13365;52.208;5.488;2022-08-30T07:06:49;21.90;90.10
25440;DHT22;13365;52.208;5.488;2022-08-30T07:09:15;22.10;90.10
25440;DHT22;13365;52.208;5.488;2022-08-30T07:11:40;22.30;88.20
25440;DHT22;13365;52.208;5.488;2022-08-30T07:14:06;22.40;87.80
25440;DHT22;13365;52.208;5.488;2022-08-30T07:16:32;22.30;87.60
25440;DHT22;13365;52.208;5.488;2022-08-30T07:18:58;22.30;86.80
25440;DHT22;13365;52.208;5.488;2022-08-30T07:21:26;22.50;85.90
25440;DHT22;13365;52.208;5.488;2022-08-30T07:23:52;22.40;84.30
25440;DHT22;13365;52.208;5.488;2022-08-30T07:26:19;22.40;85.70
25440;DHT22;13365;52.208;5.488;2022-08-30T07:28:45;22.40;84.80
25440;DHT22;13365;52.208;5.488;2022-08-30T07:31:11;22.40;84.60
25440;DHT22;13365;52.208;5.488;2022-08-30T07:33:37;22.50;85.70
25440;DHT22;13365;52.208;5.488;2022-08-30T07:36:04;22.70;84.80
25440;DHT22;13365;52.208;5.488;2022-08-30T07:38:30;23.00;84.30
25440;DHT22;13365;52.208;5.488;2022-08-30T07:40:56;23.20;79.10
25440;DHT22;13365;52.208;5.488;2022-08-30T07:43:26;23.40;80.80
25440;DHT22;13365;52.208;5.488;2022-08-30T07:45:51;23.70;79.40
25440;DHT22;13365;52.208;5.488;2022-08-30T07:48:17;23.70;78.20
25440;DHT22;13365;52.208;5.488;2022-08-30T07:50:42;23.80;77.40
25440;DHT22;13365;52.208;5.488;2022-08-30T07:53:09;23.90;76.20
25440;DHT22;13365;52.208;5.488;2022-08-30T07:55:35;23.90;74.10
25440;DHT22;13365;52.208;5.488;2022-08-30T07:58:00;24.00;75.00
25440;DHT22;13365;52.208;5.488;2022-08-30T08:00:26;24.00;73.70
25440;DHT22;13365;52.208;5.488;2022-08-30T08:02:52;24.00;74.00
25440;DHT22;13365;52.208;5.488;2022-08-30T08:05:17;23.90;71.90
25440;DHT22;13365;52.208;5.488;2022-08-30T08:07:43;24.10;73.60
25440;DHT22;13365;52.208;5.488;2022-08-30T08:10:09;24.30;73.20
25440;DHT22;13365;52.208;5.488;2022-08-30T08:12:35;24.30;71.70
25440;DHT22;13365;52.208;5.488;2022-08-30T08:15:01;24.20;69.90
25440;DHT22;13365;52.208;5.488;2022-08-30T08:17:26;24.00;70.00
25440;DHT22;13365;52.208;5.488;2022-08-30T08:19:51;23.90;70.30
25440;DHT22;13365;52.208;5.488;2022-08-30T08:22:17;24.00;70.20
25440;DHT22;13365;52.208;5.488;2022-08-30T08:24:42;24.00;69.70
25440;DHT22;13365;52.208;5.488;2022-08-30T08:27:08;23.90;70.10
25440;DHT22;13365;52.208;5.488;2022-08-30T08:29:33;24.10;70.90
25440;DHT22;13365;52.208;5.488;2022-08-30T08:31:59;24.20;68.20
25440;DHT22;13365;52.208;5.488;2022-08-30T08:34:25;24.40;69.00
25440;DHT22;13365;52.208;5.488;2022-08-30T08:36:51;24.70;67.60
25440;DHT22;13365;52.208;5.488;2022-08-30T08:39:17;24.90;66.10
25440;DHT22;13365;52.208;5.488;2022-08-30T08:41:51;25.20;66.90
25440;DHT22;13365;52.208;5.488;2022-08-30T08:44:27;25.70;65.30
25440;DHT22;13365;52.208;5.488;2022-08-30T08:47:01;25.60;62.60
25440;DHT22;13365;52.208;5.488;2022-08-30T08:49:30;25.70;65.30
25440;DHT22;13365;52.208;5.488;2022-08-30T08:51:56;25.90;64.90
25440;DHT22;13365;52.208;5.488;2022-08-30T08:54:51;26.10;62.70
25440;DHT22;13365;52.208;5.488;2022-08-30T08:57:17;25.80;61.60
25440;DHT22;13365;52.208;5.488;2022-08-30T08:59:43;25.70;61.70
25440;DHT22;13365;52.208;5.488;2022-08-30T09:02:25;25.70;62.50
25440;DHT22;13365;52.208;5.488;2022-08-30T09:04:58;25.90;63.30
25440;DHT22;13365;52.208;5.488;2022-08-30T09:07:34;25.90;61.40
25440;DHT22;13365;52.208;5.488;2022-08-30T09:10:01;25.80;61.20
25440;DHT22;13365;52.208;5.488;2022-08-30T09:12:27;25.70;61.40
25440;DHT22;13365;52.208;5.488;2022-08-30T09:14:54;25.50;62.40
25440;DHT22;13365;52.208;5.488;2022-08-30T09:17:20;25.50;62.30
25440;DHT22;13365;52.208;5.488;2022-08-30T09:24:41;25.60;63.50
25440;DHT22;13365;52.208;5.488;2022-08-30T09:27:14;25.70;62.10
25440;DHT22;13365;52.208;5.488;2022-08-30T09:29:51;26.00;62.50
25440;DHT22;13365;52.208;5.488;2022-08-30T09:32:27;26.10;60.00
25440;DHT22;13365;52.208;5.488;2022-08-30T09:34:55;26.20;62.20
25440;DHT22;13365;52.208;5.488;2022-08-30T09:37:28;26.50;61.00
25440;DHT22;13365;52.208;5.488;2022-08-30T09:39:54;26.90;60.10
25440;DHT22;13365;52.208;5.488;2022-08-30T09:42:22;27.20;59.10
25440;DHT22;13365;52.208;5.488;2022-08-30T09:44:51;27.30;57.50
25440;DHT22;13365;52.208;5.488;2022-08-30T09:47:19;27.00;57.00
25440;DHT22;13365;52.208;5.488;2022-08-30T09:49:44;26.90;56.90
25440;DHT22;13365;52.208;5.488;2022-08-30T10:00:03;27.50;57.20
25440;DHT22;13365;52.208;5.488;2022-08-30T10:02:47;27.60;57.00
25440;DHT22;13365;52.208;5.488;2022-08-30T10:13:01;27.60;55.80
25440;DHT22;13365;52.208;5.488;2022-08-30T10:18:16;27.60;56.40
25440;DHT22;13365;52.208;5.488;2022-08-30T10:21:06;27.50;55.90
25440;DHT22;13365;52.208;5.488;2022-08-30T10:23:31;27.50;57.70
25440;DHT22;13365;52.208;5.488;2022-08-30T10:28:43;27.60;57.50
25440;DHT22;13365;52.208;5.488;2022-08-30T10:31:11;27.90;57.10
25440;DHT22;13365;52.208;5.488;2022-08-30T10:33:39;28.10;55.50
25440;DHT22;13365;52.208;5.488;2022-08-30T10:36:08;28.30;56.30
25440;DHT22;13365;52.208;5.488;2022-08-30T10:38:36;28.40;55.40
25440;DHT22;13365;52.208;5.488;2022-08-30T10:41:19;28.50;54.80
25440;DHT22;13365;52.208;5.488;2022-08-30T10:43:52;28.60;54.00
25440;DHT22;13365;52.208;5.488;2022-08-30T10:46:46;28.80;53.60
25440;DHT22;13365;52.208;5.488;2022-08-30T10:49:05;29.00;54.00
25440;DHT22;13365;52.208;5.488;2022-08-30T10:54:07;28.80;52.40
25440;DHT22;13365;52.208;5.488;2022-08-30T10:56:34;29.00;53.20
25440;DHT22;13365;52.208;5.488;2022-08-30T10:59:01;29.10;53.10
25440;DHT22;13365;52.208;5.488;2022-08-30T11:07:10;29.20;52.00
25440;DHT22;13365;52.208;5.488;2022-08-30T11:09:43;29.20;52.00
25440;DHT22;13365;52.208;5.488;2022-08-30T11:12:31;29.20;53.30
25440;DHT22;13365;52.208;5.488;2022-08-30T11:14:57;29.40;53.30
25440;DHT22;13365;52.208;5.488;2022-08-30T11:19:49;29.50;53.10
25440;DHT22;13365;52.208;5.488;2022-08-30T11:22:20;29.40;52.20
25440;DHT22;13365;52.208;5.488;2022-08-30T11:25:00;29.40;52.90
25440;DHT22;13365;52.208;5.488;2022-08-30T11:35:42;29.40;52.30
25440;DHT22;13365;52.208;5.488;2022-08-30T11:38:19;29.60;53.00
25440;DHT22;13365;52.208;5.488;2022-08-30T11:41:06;29.70;51.60
25440;DHT22;13365;52.208;5.488;2022-08-30T11:46:17;29.60;52.00
25440;DHT22;13365;52.208;5.488;2022-08-30T11:48:44;29.60;54.40
25440;DHT22;13365;52.208;5.488;2022-08-30T11:51:36;29.80;51.60
25440;DHT22;13365;52.208;5.488;2022-08-30T11:56:26;30.10;50.50
25440;DHT22;13365;52.208;5.488;2022-08-30T11:58:53;30.30;49.80
25440;DHT22;13365;52.208;5.488;2022-08-30T12:03:54;30.10;52.00
25440;DHT22;13365;52.208;5.488;2022-08-30T12:09:05;30.10;52.30
25440;DHT22;13365;52.208;5.488;2022-08-30T12:13:58;30.00;51.60
25440;DHT22;13365;52.208;5.488;2022-08-30T12:18:59;30.10;52.30
25440;DHT22;13365;52.208;5.488;2022-08-30T12:21:34;30.30;52.10
25440;DHT22;13365;52.208;5.488;2022-08-30T12:24:17;30.30;51.40
25440;DHT22;13365;52.208;5.488;2022-08-30T12:26:45;30.00;51.60
25440;DHT22;13365;52.208;5.488;2022-08-30T12:31:40;29.90;53.80
25440;DHT22;13365;52.208;5.488;2022-08-30T12:34:06;30.00;52.80
25440;DHT22;13365;52.208;5.488;2022-08-30T12:36:37;30.20;52.60
25440;DHT22;13365;52.208;5.488;2022-08-30T12:41:34;30.20;50.80
25440;DHT22;13365;52.208;5.488;2022-08-30T12:43:59;30.30;51.70
25440;DHT22;13365;52.208;5.488;2022-08-30T12:46:25;30.50;51.80
25440;DHT22;13365;52.208;5.488;2022-08-30T12:48:51;30.20;50.40
25440;DHT22;13365;52.208;5.488;2022-08-30T12:54:01;29.70;51.60
25440;DHT22;13365;52.208;5.488;2022-08-30T12:56:44;29.80;50.90
25440;DHT22;13365;52.208;5.488;2022-08-30T12:59:22;29.80;49.90
25440;DHT22;13365;52.208;5.488;2022-08-30T13:02:04;29.70;49.90
25440;DHT22;13365;52.208;5.488;2022-08-30T13:04:30;29.50;52.10
25440;DHT22;13365;52.208;5.488;2022-08-30T13:06:59;29.20;50.80
25440;DHT22;13365;52.208;5.488;2022-08-30T13:12:00;29.00;51.60
25440;DHT22;13365;52.208;5.488;2022-08-30T13:22:29;28.90;51.40
25440;DHT22;13365;52.208;5.488;2022-08-30T13:24:55;29.00;52.60
25440;DHT22;13365;52.208;5.488;2022-08-30T13:27:21;29.10;52.40
25440;DHT22;13365;52.208;5.488;2022-08-30T13:29:47;29.30;50.50
25440;DHT22;13365;52.208;5.488;2022-08-30T13:32:12;29.50;49.60
25440;DHT22;13365;52.208;5.488;2022-08-30T13:34:39;29.50;50.20
25440;DHT22;13365;52.208;5.488;2022-08-30T13:37:04;29.30;50.80
25440;DHT22;13365;52.208;5.488;2022-08-30T13:39:31;29.10;51.00
25440;DHT22;13365;52.208;5.488;2022-08-30T13:41:57;29.10;50.50
25440;DHT22;13365;52.208;5.488;2022-08-30T13:44:22;29.30;50.80
25440;DHT22;13365;52.208;5.488;2022-08-30T13:46:50;29.30;50.30
25440;DHT22;13365;52.208;5.488;2022-08-30T13:49:20;29.20;50.20
25440;DHT22;13365;52.208;5.488;2022-08-30T13:51:46;29.20;50.90
25440;DHT22;13365;52.208;5.488;2022-08-30T13:54:12;28.90;49.90
25440;DHT22;13365;52.208;5.488;2022-08-30T13:56:38;28.50;51.80
25440;DHT22;13365;52.208;5.488;2022-08-30T13:59:03;28.30;51.40
25440;DHT22;13365;52.208;5.488;2022-08-30T14:01:29;28.60;51.90
25440;DHT22;13365;52.208;5.488;2022-08-30T14:03:54;28.90;51.10
25440;DHT22;13365;52.208;5.488;2022-08-30T14:06:20;28.90;50.40
25440;DHT22;13365;52.208;5.488;2022-08-30T14:08:45;28.80;50.20
25440;DHT22;13365;52.208;5.488;2022-08-30T14:11:11;28.70;50.40
25440;DHT22;13365;52.208;5.488;2022-08-30T14:13:37;28.60;50.10
25440;DHT22;13365;52.208;5.488;2022-08-30T14:16:04;28.70;50.20
25440;DHT22;13365;52.208;5.488;2022-08-30T14:18:30;28.60;50.20
25440;DHT22;13365;52.208;5.488;2022-08-30T14:20:56;28.60;50.60
25440;DHT22;13365;52.208;5.488;2022-08-30T14:23:23;28.50;51.10
25440;DHT22;13365;52.208;5.488;2022-08-30T14:25:49;28.40;50.60
25440;DHT22;13365;52.208;5.488;2022-08-30T14:28:14;28.50;50.20
25440;DHT22;13365;52.208;5.488;2022-08-30T14:30:40;28.40;50.00
25440;DHT22;13365;52.208;5.488;2022-08-30T14:33:05;28.20;51.20
25440;DHT22;13365;52.208;5.488;2022-08-30T14:35:30;27.80;52.20
25440;DHT22;13365;52.208;5.488;2022-08-30T14:37:56;27.80;51.90
25440;DHT22;13365;52.208;5.488;2022-08-30T14:40:21;27.80;51.80
25440;DHT22;13365;52.208;5.488;2022-08-30T14:42:47;27.90;51.70
25440;DHT22;13365;52.208;5.488;2022-08-30T14:45:12;28.00;50.90
25440;DHT22;13365;52.208;5.488;2022-08-30T14:47:38;28.00;51.20
25440;DHT22;13365;52.208;5.488;2022-08-30T14:50:04;28.10;51.90
25440;DHT22;13365;52.208;5.488;2022-08-30T14:52:30;28.10;51.60
25440;DHT22;13365;52.208;5.488;2022-08-30T14:54:59;28.10;52.20
25440;DHT22;13365;52.208;5.488;2022-08-30T14:57:25;27.90;52.00
25440;DHT22;13365;52.208;5.488;2022-08-30T14:59:50;28.10;51.80
25440;DHT22;13365;52.208;5.488;2022-08-30T15:02:16;28.30;51.60
25440;DHT22;13365;52.208;5.488;2022-08-30T15:04:42;28.30;50.80
25440;DHT22;13365;52.208;5.488;2022-08-30T15:07:07;28.30;51.10
25440;DHT22;13365;52.208;5.488;2022-08-30T15:09:33;28.50;51.30
25440;DHT22;13365;52.208;5.488;2022-08-30T15:11:58;28.60;50.30
25440;DHT22;13365;52.208;5.488;2022-08-30T15:14:26;28.60;50.00
25440;DHT22;13365;52.208;5.488;2022-08-30T15:16:52;28.50;50.40
25440;DHT22;13365;52.208;5.488;2022-08-30T15:19:18;28.50;50.60
25440;DHT22;13365;52.208;5.488;2022-08-30T15:21:44;28.60;50.30
25440;DHT22;13365;52.208;5.488;2022-08-30T15:24:12;28.40;50.80
25440;DHT22;13365;52.208;5.488;2022-08-30T15:26:38;28.40;51.20
25440;DHT22;13365;52.208;5.488;2022-08-30T15:29:08;28.40;51.20
25440;DHT22;13365;52.208;5.488;2022-08-30T15:31:34;28.40;51.60
25440;DHT22;13365;52.208;5.488;2022-08-30T15:34:00;28.20;51.30
25440;DHT22;13365;52.208;5.488;2022-08-30T15:36:26;28.20;50.70
25440;DHT22;13365;52.208;5.488;2022-08-30T15:38:52;28.20;51.30
25440;DHT22;13365;52.208;5.488;2022-08-30T15:41:21;28.30;51.10
25440;DHT22;13365;52.208;5.488;2022-08-30T15:43:47;28.30;51.20
25440;DHT22;13365;52.208;5.488;2022-08-30T15:46:20;28.40;51.00
25440;DHT22;13365;52.208;5.488;2022-08-30T15:48:46;28.50;51.10
25440;DHT22;13365;52.208;5.488;2022-08-30T15:51:12;28.60;50.70
25440;DHT22;13365;52.208;5.488;2022-08-30T15:53:38;28.70;50.60
25440;DHT22;13365;52.208;5.488;2022-08-30T15:56:03;28.40;49.80
25440;DHT22;13365;52.208;5.488;2022-08-30T15:58:29;28.30;49.90
25440;DHT22;13365;52.208;5.488;2022-08-30T16:00:54;28.20;50.30
25440;DHT22;13365;52.208;5.488;2022-08-30T16:03:19;28.30;50.60
25440;DHT22;13365;52.208;5.488;2022-08-30T16:05:45;28.40;50.10
25440;DHT22;13365;52.208;5.488;2022-08-30T16:08:10;28.40;50.50
25440;DHT22;13365;52.208;5.488;2022-08-30T16:10:39;28.70;49.90
25440;DHT22;13365;52.208;5.488;2022-08-30T16:13:04;28.90;49.60
25440;DHT22;13365;52.208;5.488;2022-08-30T16:15:30;29.10;49.00
25440;DHT22;13365;52.208;5.488;2022-08-30T16:17:56;29.30;48.60
25440;DHT22;13365;52.208;5.488;2022-08-30T16:20:21;29.30;48.30
25440;DHT22;13365;52.208;5.488;2022-08-30T16:22:46;29.50;48.20
25440;DHT22;13365;52.208;5.488;2022-08-30T16:25:12;29.50;48.30
25440;DHT22;13365;52.208;5.488;2022-08-30T16:27:38;29.70;48.70
25440;DHT22;13365;52.208;5.488;2022-08-30T16:30:10;29.80;47.50
25440;DHT22;13365;52.208;5.488;2022-08-30T16:32:36;30.00;48.30
25440;DHT22;13365;52.208;5.488;2022-08-30T16:35:02;30.00;47.80
25440;DHT22;13365;52.208;5.488;2022-08-30T16:37:27;29.80;47.90
25440;DHT22;13365;52.208;5.488;2022-08-30T16:39:53;29.70;47.30
25440;DHT22;13365;52.208;5.488;2022-08-30T16:42:18;29.60;48.00
25440;DHT22;13365;52.208;5.488;2022-08-30T16:44:43;29.40;48.30
25440;DHT22;13365;52.208;5.488;2022-08-30T16:47:09;29.40;48.80
25440;DHT22;13365;52.208;5.488;2022-08-30T16:49:34;29.40;48.30